Time;durP1;ratioP1;P1;durP2;ratioP2;P2;SDS_P1;SDS_P2;PMS_P1;PMS_P2;Temp;Humidity;BMP_temperature;BMP_pressure;BME280_temperature;BME280_humidity;BME280_pressure;Samples;Min_cycle;Max_cycle;Signal;HPM_P1;HPM_P2
2021/05/25 04:12:07;;;;;;;0.50;0.50;;;13.70;99.90;;;;;;5202545;23;1043991;-75
2021/05/25 04:14:35;;;;;;;0.60;0.60;;;13.60;99.90;;;;;;4992611;28;20199;-75
2021/05/25 04:17:02;;;;;;;0.50;0.50;;;14.20;99.90;;;;;;4989357;28;20723;-75
2021/05/25 04:19:30;;;;;;;0.50;0.50;;;13.90;99.90;;;;;;4991362;28;20707;-75
2021/05/25 04:21:57;;;;;;;0.50;0.50;;;14.00;99.90;;;;;;4976419;28;20498;-75
2021/05/25 04:24:24;;;;;;;0.40;0.40;;;13.90;99.90;;;;;;4973948;28;20328;-75
2021/05/25 04:26:52;;;;;;;0.40;0.40;;;13.90;99.90;;;;;;4972929;28;20263;-75
2021/05/25 04:29:20;;;;;;;0.50;0.50;;;13.70;99.90;;;;;;4973237;28;20197;-75
2021/05/25 04:31:47;;;;;;;0.50;0.50;;;13.80;99.90;;;;;;4973026;28;20221;-75
2021/05/25 04:34:15;;;;;;;0.60;0.60;;;13.80;99.90;;;;;;4973130;28;20204;-75
2021/05/25 04:36:42;;;;;;;0.40;0.40;;;14.00;99.90;;;;;;4972913;28;20212;-75
2021/05/25 04:39:10;;;;;;;0.40;0.40;;;14.10;99.90;;;;;;4973258;28;20224;-75
2021/05/25 04:41:37;;;;;;;0.50;0.50;;;14.10;99.90;;;;;;4972566;28;20705;-75
2021/05/25 04:44:05;;;;;;;0.40;0.40;;;14.00;99.90;;;;;;4973039;28;20207;-75
2021/05/25 04:46:33;;;;;;;0.50;0.50;;;14.00;99.90;;;;;;4973079;28;20201;-74
2021/05/25 04:49:00;;;;;;;0.40;0.40;;;14.20;99.90;;;;;;4973332;28;20213;-75
2021/05/25 04:51:28;;;;;;;0.40;0.40;;;14.30;99.90;;;;;;4973357;28;20604;-75
2021/05/25 04:53:55;;;;;;;0.50;0.50;;;14.40;99.90;;;;;;4974029;28;20727;-75
2021/05/25 04:56:22;;;;;;;0.50;0.50;;;14.40;99.90;;;;;;4975657;28;20212;-75
2021/05/25 04:58:50;;;;;;;0.50;0.50;;;14.20;99.90;;;;;;4974206;28;20220;-75
2021/05/25 05:01:17;;;;;;;0.50;0.50;;;14.20;99.90;;;;;;4972955;28;20224;-75
2021/05/25 05:03:45;;;;;;;0.60;0.60;;;14.20;99.90;;;;;;4973306;28;20265;-75
2021/05/25 05:06:13;;;;;;;0.40;0.40;;;14.20;99.90;;;;;;4972924;28;20212;-75
2021/05/25 05:08:43;;;;;;;0.50;0.50;;;14.40;99.90;;;;;;4973203;28;20200;-75
2021/05/25 05:11:11;;;;;;;0.60;0.60;;;14.60;99.90;;;;;;4973020;28;20244;-75
2021/05/25 05:13:38;;;;;;;0.50;0.50;;;14.60;99.90;;;;;;4972771;28;20271;-74
2021/05/25 05:16:06;;;;;;;0.40;0.40;;;14.50;99.90;;;;;;4973046;28;20609;-74
2021/05/25 05:18:33;;;;;;;0.40;0.40;;;14.50;99.90;;;;;;4972750;28;20205;-75
2021/05/25 05:21:01;;;;;;;0.50;0.50;;;14.50;99.90;;;;;;4973297;28;20224;-74
2021/05/25 05:23:29;;;;;;;0.50;0.50;;;14.40;99.90;;;;;;4972977;28;20260;-74
2021/05/25 05:25:56;;;;;;;0.60;0.60;;;14.10;99.90;;;;;;4973102;28;20204;-74
2021/05/25 05:28:23;;;;;;;0.60;0.60;;;14.00;99.90;;;;;;4972972;28;20213;-74
2021/05/25 05:30:51;;;;;;;0.50;0.50;;;13.90;99.90;;;;;;4972995;28;20276;-74
2021/05/25 05:33:18;;;;;;;0.60;0.60;;;13.90;99.90;;;;;;4972875;28;20229;-74
2021/05/25 05:35:46;;;;;;;0.50;0.50;;;13.80;99.90;;;;;;4972904;28;20662;-74
2021/05/25 05:38:14;;;;;;;0.50;0.50;;;13.80;99.90;;;;;;4972822;28;20259;-74
2021/05/25 05:40:41;;;;;;;0.60;0.60;;;13.90;99.90;;;;;;4972766;28;20698;-74
2021/05/25 05:43:09;;;;;;;0.50;0.50;;;13.90;99.90;;;;;;4972504;28;20577;-74
2021/05/25 05:45:37;;;;;;;0.60;0.60;;;13.80;99.90;;;;;;4972905;28;20287;-74
2021/05/25 05:48:05;;;;;;;0.60;0.60;;;13.80;99.90;;;;;;4973397;28;20263;-74
2021/05/25 05:50:33;;;;;;;0.60;0.60;;;13.70;99.90;;;;;;4973765;28;20225;-74
2021/05/25 05:53:00;;;;;;;0.50;0.50;;;13.70;99.90;;;;;;4975084;28;20639;-75
2021/05/25 05:55:29;;;;;;;0.60;0.60;;;13.80;99.90;;;;;;4976119;28;20204;-75
2021/05/25 05:57:57;;;;;;;0.60;0.60;;;13.90;99.90;;;;;;4976103;28;20629;-74
2021/05/25 06:00:25;;;;;;;0.60;0.60;;;13.90;99.90;;;;;;4975818;28;20267;-75
2021/05/25 06:02:52;;;;;;;0.60;0.60;;;13.80;99.90;;;;;;4975840;28;20227;-74
2021/05/25 06:05:20;;;;;;;0.57;0.57;;;13.90;99.90;;;;;;4975467;28;20205;-74
2021/05/25 06:07:47;;;;;;;0.60;0.60;;;13.80;99.90;;;;;;4975720;28;20280;-74
2021/05/25 06:10:15;;;;;;;0.60;0.60;;;13.80;99.90;;;;;;4975546;28;20621;-74
2021/05/25 06:12:43;;;;;;;0.60;0.60;;;13.60;99.90;;;;;;4975930;28;20255;-75
2021/05/25 06:15:12;;;;;;;0.60;0.60;;;13.60;99.90;;;;;;4975552;28;20216;-74
2021/05/25 06:17:40;;;;;;;0.60;0.60;;;13.70;99.90;;;;;;4975421;28;20669;-74
2021/05/25 06:20:08;;;;;;;0.50;0.50;;;13.70;99.90;;;;;;4975388;28;20291;-75
2021/05/25 06:22:36;;;;;;;0.60;0.60;;;13.60;99.90;;;;;;4974785;28;20217;-75
2021/05/25 06:25:06;;;;;;;0.70;0.70;;;13.50;99.70;;;;;;4975295;28;20284;-74
2021/05/25 06:27:35;;;;;;;0.50;0.50;;;;;;;;;;4975307;28;20216;-74
2021/05/25 06:30:03;;;;;;;0.50;0.50;;;13.40;99.10;;;;;;4975594;28;20200;-74
2021/05/25 06:32:31;;;;;;;0.60;0.60;;;13.50;99.00;;;;;;4975435;28;20225;-75
2021/05/25 06:34:59;;;;;;;0.60;0.60;;;13.40;99.90;;;;;;4975131;28;20228;-75
2021/05/25 06:37:26;;;;;;;0.50;0.50;;;13.30;99.40;;;;;;4975349;28;20563;-75
2021/05/25 06:39:54;;;;;;;0.60;0.60;;;13.30;99.80;;;;;;4975016;28;20251;-75
2021/05/25 06:42:21;;;;;;;0.73;0.73;;;13.30;99.30;;;;;;4975488;28;20574;-75
2021/05/25 06:44:49;;;;;;;0.50;0.50;;;13.20;99.50;;;;;;4975304;28;20673;-75
2021/05/25 06:47:17;;;;;;;0.60;0.60;;;13.10;98.10;;;;;;4974906;28;20686;-75
2021/05/25 06:49:44;;;;;;;0.50;0.50;;;13.10;98.90;;;;;;4975040;28;20263;-75
2021/05/25 06:52:11;;;;;;;0.60;0.60;;;13.10;98.90;;;;;;4975088;28;20232;-75
2021/05/25 06:54:39;;;;;;;0.70;0.70;;;13.20;99.20;;;;;;4975098;28;20201;-75
2021/05/25 06:57:07;;;;;;;0.60;0.60;;;13.20;98.90;;;;;;4974835;28;20356;-75
2021/05/25 06:59:37;;;;;;;0.60;0.60;;;13.20;97.80;;;;;;4974988;28;20271;-75
2021/05/25 07:02:04;;;;;;;0.60;0.60;;;13.20;97.60;;;;;;4975134;28;20216;-75
2021/05/25 07:04:33;;;;;;;0.50;0.50;;;13.20;97.90;;;;;;4974461;28;20624;-75
2021/05/25 07:07:00;;;;;;;0.70;0.70;;;13.30;96.60;;;;;;4974681;28;20204;-75
2021/05/25 07:09:27;;;;;;;0.60;0.60;;;13.30;96.80;;;;;;4974711;28;20236;-75
2021/05/25 07:11:55;;;;;;;0.50;0.50;;;13.10;96.80;;;;;;4974298;28;20709;-75
2021/05/25 07:14:22;;;;;;;0.60;0.60;;;13.00;96.50;;;;;;4974471;28;20263;-75
2021/05/25 07:16:49;;;;;;;0.60;0.60;;;13.10;96.90;;;;;;4974339;28;20252;-75
2021/05/25 07:19:17;;;;;;;0.50;0.50;;;13.10;96.70;;;;;;4974710;28;20228;-75
2021/05/25 07:21:45;;;;;;;0.70;0.70;;;13.10;97.10;;;;;;4974409;28;20239;-75
2021/05/25 07:24:12;;;;;;;0.50;0.50;;;13.20;97.00;;;;;;4974468;28;20205;-75
2021/05/25 07:26:41;;;;;;;0.60;0.60;;;13.20;96.30;;;;;;4974289;28;20629;-75
2021/05/25 07:29:08;;;;;;;0.50;0.50;;;13.10;96.60;;;;;;4974364;28;20208;-74
2021/05/25 07:31:36;;;;;;;0.50;0.50;;;13.30;96.50;;;;;;4974466;28;20229;-75
2021/05/25 07:34:04;;;;;;;0.50;0.50;;;13.60;96.60;;;;;;4974070;28;20205;-75
2021/05/25 07:36:31;;;;;;;0.60;0.60;;;13.90;95.70;;;;;;4974071;28;20208;-75
2021/05/25 07:39:00;;;;;;;0.60;0.60;;;13.90;94.70;;;;;;4974439;28;20255;-76
2021/05/25 07:41:27;;;;;;;0.50;0.50;;;13.90;94.90;;;;;;4973925;28;20232;-75
2021/05/25 07:43:54;;;;;;;0.60;0.60;;;13.80;95.00;;;;;;4973903;28;20627;-75
2021/05/25 07:46:24;;;;;;;0.60;0.60;;;13.80;95.40;;;;;;4973960;28;20209;-75
2021/05/25 07:48:52;;;;;;;0.60;0.60;;;13.90;95.00;;;;;;4974066;28;20208;-75
2021/05/25 07:51:20;;;;;;;0.43;0.43;;;13.80;95.20;;;;;;4973955;28;20221;-75
2021/05/25 07:53:48;;;;;;;0.50;0.50;;;13.90;94.70;;;;;;4973725;28;20204;-75
2021/05/25 07:56:16;;;;;;;0.55;0.55;;;14.00;95.10;;;;;;4973430;28;20204;-75
2021/05/25 07:58:43;;;;;;;0.47;0.47;;;14.10;94.20;;;;;;4973775;28;20209;-75
2021/05/25 08:01:11;;;;;;;0.50;0.50;;;14.00;94.90;;;;;;4973752;28;20229;-75
2021/05/25 08:03:38;;;;;;;0.60;0.60;;;14.30;95.30;;;;;;4973757;28;20208;-76
2021/05/25 08:06:06;;;;;;;0.57;0.57;;;14.70;96.50;;;;;;4973270;28;20208;-75
2021/05/25 08:08:33;;;;;;;0.50;0.50;;;14.50;94.10;;;;;;4973916;28;20211;-75
2021/05/25 08:11:01;;;;;;;0.50;0.50;;;14.40;96.00;;;;;;4973444;28;20279;-75
2021/05/25 08:13:29;;;;;;;0.40;0.40;;;14.60;93.30;;;;;;4973782;28;20299;-75
2021/05/25 08:15:56;;;;;;;0.60;0.60;;;14.50;95.20;;;;;;4973438;28;20744;-75
2021/05/25 08:18:38;;;;;;;0.40;0.40;;;14.80;97.60;;;;;;4973816;28;20204;-75
2021/05/25 08:21:06;;;;;;;0.60;0.60;;;14.80;92.30;;;;;;4973390;28;20279;-76
2021/05/25 08:23:33;;;;;;;0.50;0.50;;;15.10;91.80;;;;;;4973481;28;20204;-75
2021/05/25 08:26:04;;;;;;;0.50;0.50;;;15.00;90.70;;;;;;4973566;28;20207;-75
2021/05/25 08:28:32;;;;;;;0.40;0.40;;;15.00;90.40;;;;;;4973201;28;20252;-75
2021/05/25 08:30:59;;;;;;;0.50;0.50;;;14.90;96.10;;;;;;4973731;28;20224;-75
2021/05/25 08:33:27;;;;;;;0.50;0.50;;;15.10;90.40;;;;;;4973237;28;20582;-75
2021/05/25 08:35:55;;;;;;;0.50;0.50;;;15.30;90.70;;;;;;4973168;28;20255;-75
2021/05/25 08:38:23;;;;;;;0.50;0.50;;;15.20;90.20;;;;;;4973497;28;20272;-76
2021/05/25 08:40:52;;;;;;;0.40;0.40;;;15.40;89.30;;;;;;4973138;28;20644;-76
2021/05/25 08:43:21;;;;;;;0.40;0.40;;;15.60;87.70;;;;;;4973195;28;20204;-75
2021/05/25 08:45:49;;;;;;;0.50;0.50;;;15.40;87.20;;;;;;4972929;28;20713;-75
2021/05/25 08:48:17;;;;;;;0.40;0.40;;;15.50;89.00;;;;;;4973461;28;20217;-75
2021/05/25 08:50:52;;;;;;;0.40;0.40;;;16.00;88.70;;;;;;4972933;28;20217;-75
2021/05/25 08:53:20;;;;;;;0.40;0.40;;;15.90;87.20;;;;;;4973119;28;20597;-76
2021/05/25 08:55:49;;;;;;;0.50;0.50;;;16.20;87.70;;;;;;4973026;28;20204;-75
2021/05/25 08:58:17;;;;;;;0.40;0.40;;;16.30;86.80;;;;;;4973034;28;20267;-75
2021/05/25 09:00:45;;;;;;;0.50;0.50;;;16.00;83.50;;;;;;4972879;28;20228;-75
2021/05/25 09:03:15;;;;;;;0.40;0.40;;;15.90;83.90;;;;;;4972736;28;20286;-75
2021/05/25 09:05:51;;;;;;;0.50;0.50;;;15.80;84.60;;;;;;4972806;28;20698;-75
2021/05/25 09:08:19;;;;;;;0.50;0.50;;;15.50;85.80;;;;;;4973082;28;20215;-75
2021/05/25 09:10:47;;;;;;;0.50;0.50;;;15.50;86.80;;;;;;4972825;28;20710;-76
2021/05/25 09:13:16;;;;;;;0.50;0.50;;;15.30;84.80;;;;;;4972625;28;20209;-75
2021/05/25 09:15:45;;;;;;;0.60;0.60;;;15.30;85.20;;;;;;4972971;28;20624;-75
2021/05/25 09:18:15;;;;;;;0.40;0.40;;;15.50;86.20;;;;;;4972983;28;20674;-75
2021/05/25 09:20:45;;;;;;;0.40;0.40;;;15.80;87.00;;;;;;4972902;28;20236;-75
2021/05/25 09:23:16;;;;;;;0.40;0.40;;;16.20;84.50;;;;;;4972803;28;20200;-75
2021/05/25 09:25:51;;;;;;;0.50;0.50;;;16.30;83.30;;;;;;4972459;28;20204;-75
2021/05/25 09:28:19;;;;;;;0.40;0.40;;;16.30;79.80;;;;;;4976679;28;20621;-75
2021/05/25 09:30:47;;;;;;;0.40;0.40;;;15.90;80.50;;;;;;4976151;28;20275;-75
2021/05/25 09:33:17;;;;;;;0.60;0.60;;;15.70;81.30;;;;;;4976190;28;20230;-75
2021/05/25 09:35:47;;;;;;;0.40;0.40;;;16.00;82.10;;;;;;4976168;28;20256;-75
2021/05/25 09:38:17;;;;;;;0.40;0.40;;;16.00;81.30;;;;;;4976401;28;20251;-75
2021/05/25 09:40:45;;;;;;;0.50;0.50;;;16.10;81.60;;;;;;4976356;28;20686;-75
2021/05/25 09:43:18;;;;;;;0.40;0.40;;;16.00;81.70;;;;;;4976273;28;20267;-75
2021/05/25 09:46:09;;;;;;;0.50;0.50;;;16.00;79.70;;;;;;4975833;28;20208;-75
2021/05/25 09:48:53;;;;;;;0.40;0.40;;;16.10;80.60;;;;;;4976695;28;20252;-75
2021/05/25 09:51:22;;;;;;;0.50;0.50;;;16.30;80.50;;;;;;4976330;28;20216;-75
2021/05/25 09:53:57;;;;;;;0.50;0.50;;;16.20;81.70;;;;;;4976328;28;20188;-75
2021/05/25 09:56:26;;;;;;;0.50;0.50;;;16.30;81.90;;;;;;4975771;28;20208;-75
2021/05/25 09:58:54;;;;;;;0.40;0.40;;;16.70;81.30;;;;;;4976003;28;20204;-75
2021/05/25 10:01:32;;;;;;;0.40;0.40;;;17.20;78.60;;;;;;4976044;28;20228;-75
2021/05/25 10:04:10;;;;;;;0.50;0.50;;;17.40;75.50;;;;;;4976083;28;20620;-75
2021/05/25 10:06:38;;;;;;;0.50;0.50;;;17.50;73.20;;;;;;4975857;28;20677;-75
2021/05/25 10:09:06;;;;;;;0.50;0.50;;;17.00;72.10;;;;;;4975646;28;20209;-75
2021/05/25 10:11:33;;;;;;;0.40;0.40;;;17.10;72.30;;;;;;4975617;28;20228;-75
2021/05/25 10:14:02;;;;;;;0.50;0.50;;;17.00;73.00;;;;;;4975449;28;20662;-75
2021/05/25 10:16:33;;;;;;;0.40;0.40;;;16.70;72.10;;;;;;4975654;28;20255;-75
2021/05/25 10:19:13;;;;;;;0.50;0.50;;;16.60;72.80;;;;;;4975739;28;20208;-74
2021/05/25 10:21:44;;;;;;;0.50;0.50;;;16.30;71.60;;;;;;4975555;28;20228;-75
2021/05/25 10:24:12;;;;;;;0.40;0.40;;;16.00;72.40;;;;;;4975842;28;20204;-75
2021/05/25 10:26:39;;;;;;;0.40;0.40;;;16.00;72.70;;;;;;4975472;28;20259;-75
2021/05/25 10:29:07;;;;;;;0.50;0.50;;;16.10;74.00;;;;;;4975535;28;20208;-75
2021/05/25 10:31:36;;;;;;;0.40;0.40;;;16.20;72.10;;;;;;4975435;28;20224;-75
2021/05/25 10:34:15;;;;;;;0.50;0.50;;;16.30;70.70;;;;;;4975222;28;20215;-75
2021/05/25 10:36:43;;;;;;;0.40;0.40;;;16.50;71.60;;;;;;4975060;28;20207;-75
2021/05/25 10:39:28;;;;;;;0.40;0.40;;;16.60;71.00;;;;;;4974696;28;20235;-75
2021/05/25 10:42:27;;;;;;;0.40;0.40;;;16.60;71.40;;;;;;4975138;28;20224;-75
2021/05/25 10:45:16;;;;;;;0.40;0.40;;;16.60;70.80;;;;;;4974949;28;20300;-75
2021/05/25 10:47:59;;;;;;;0.50;0.50;;;16.50;69.20;;;;;;4975339;28;20205;-75
2021/05/25 10:50:33;;;;;;;0.50;0.50;;;16.30;84.50;;;;;;4975209;28;20629;-73
2021/05/25 10:53:25;;;;;;;0.40;0.40;;;16.40;68.60;;;;;;4974947;28;20204;-75
2021/05/25 10:55:53;;;;;;;0.40;0.40;;;17.20;67.90;;;;;;4975349;28;20208;-75
2021/05/25 10:58:29;;;;;;;0.50;0.50;;;16.50;67.50;;;;;;4975435;28;20255;-75
2021/05/25 11:00:58;;;;;;;0.50;0.50;;;16.60;67.60;;;;;;4974901;28;20236;-75
2021/05/25 11:03:26;;;;;;;0.30;0.30;;;16.80;68.60;;;;;;4974653;28;20213;-75
2021/05/25 11:05:56;;;;;;;0.40;0.40;;;16.80;67.00;;;;;;4974636;28;20263;-75
2021/05/25 11:08:44;;;;;;;0.50;0.50;;;16.80;68.50;;;;;;4974956;28;20212;-75
2021/05/25 11:11:28;;;;;;;0.40;0.40;;;16.50;67.80;;;;;;4969972;28;20646;-75
2021/05/25 11:13:57;;;;;;;0.50;0.50;;;16.50;67.20;;;;;;4974355;28;20803;-75
2021/05/25 11:16:28;;;;;;;0.40;0.40;;;16.40;67.50;;;;;;4974491;28;20573;-75
2021/05/25 11:18:59;;;;;;;0.40;0.40;;;16.40;66.70;;;;;;4975020;28;20259;-75
2021/05/25 11:24:33;;;;;;;0.40;0.40;;;16.50;67.60;;;;;;4964210;28;20208;-75
2021/05/25 11:27:05;;;;;;;0.50;0.50;;;16.60;67.50;;;;;;4974566;28;20252;-75
2021/05/25 11:29:34;;;;;;;0.40;0.40;;;16.30;66.40;;;;;;4974652;28;20204;-75
2021/05/25 11:32:07;;;;;;;0.40;0.40;;;16.20;67.10;;;;;;4974357;28;20698;-75
2021/05/25 11:34:34;;;;;;;0.40;0.40;;;16.20;68.70;;;;;;4974225;28;20201;-75
2021/05/25 11:37:05;;;;;;;0.50;0.50;;;16.30;68.80;;;;;;4974137;28;20252;-75
2021/05/25 11:39:34;;;;;;;0.40;0.40;;;16.20;67.40;;;;;;4974823;28;20276;-75
2021/05/25 11:42:02;;;;;;;0.50;0.50;;;16.40;67.60;;;;;;4987417;28;20228;-74
2021/05/25 11:44:35;;;;;;;0.50;0.50;;;16.60;67.20;;;;;;4975666;28;20204;-75
2021/05/25 11:47:06;;;;;;;0.40;0.40;;;16.90;68.10;;;;;;4974183;28;20642;-74
2021/05/25 11:49:35;;;;;;;0.30;0.30;;;17.50;81.50;;;;;;4974133;28;20252;-74
2021/05/25 11:52:28;;;;;;;0.40;0.40;;;17.30;68.30;;;;;;4974196;28;20216;-75
2021/05/25 11:54:58;;;;;;;0.47;0.47;;;17.40;67.90;;;;;;4973919;28;20205;-75
2021/05/25 11:57:28;;;;;;;0.40;0.40;;;17.50;65.50;;;;;;4973846;28;20263;-75
2021/05/25 11:59:57;;;;;;;0.30;0.30;;;17.50;64.90;;;;;;4974363;28;20216;-75
2021/05/25 12:02:26;;;;;;;0.50;0.50;;;17.40;64.70;;;;;;4973581;28;20232;-75
2021/05/25 12:05:01;;;;;;;0.47;0.47;;;17.10;65.00;;;;;;4973780;28;20201;-75
2021/05/25 12:07:29;;;;;;;0.40;0.40;;;17.20;66.00;;;;;;4973558;28;20661;-75
2021/05/25 12:10:04;;;;;;;0.32;0.32;;;17.00;65.10;;;;;;4973504;28;20205;-75
2021/05/25 12:12:31;;;;;;;0.32;0.32;;;16.90;66.70;;;;;;4973499;28;20866;-75
2021/05/25 12:15:00;;;;;;;0.30;0.30;;;16.70;68.70;;;;;;4973566;28;20228;-75
2021/05/25 12:17:29;;;;;;;0.40;0.40;;;16.70;69.50;;;;;;4973703;28;20606;-74
2021/05/25 12:19:58;;;;;;;0.40;0.40;;;16.50;68.20;;;;;;4974112;28;20200;-72
2021/05/25 12:22:38;;;;;;;0.40;0.40;;;16.00;73.70;;;;;;4973502;28;20650;-74
2021/05/25 12:25:32;;;;;;;0.60;0.60;;;15.10;87.50;;;;;;4973191;28;20299;-77
2021/05/25 12:28:08;;;;;;;0.60;0.60;;;14.80;99.20;;;;;;4973660;28;20205;-74
2021/05/25 12:30:42;;;;;;;0.40;0.40;;;14.90;99.90;;;;;;4973348;28;20629;-74
2021/05/25 12:33:16;;;;;;;0.40;0.40;;;15.10;99.90;;;;;;4973516;28;20257;-74
2021/05/25 12:35:44;;;;;;;0.40;0.40;;;14.80;99.90;;;;;;4973448;28;20212;-74
2021/05/25 12:38:15;;;;;;;0.50;0.50;;;14.70;99.90;;;;;;4973537;28;20573;-74
2021/05/25 12:40:45;;;;;;;0.50;0.50;;;14.70;99.90;;;;;;4973351;28;20232;-74
2021/05/25 12:43:23;;;;;;;0.50;0.50;;;14.50;99.90;;;;;;4973346;28;20197;-74
2021/05/25 12:45:53;;;;;;;0.60;0.60;;;14.00;99.90;;;;;;4972937;28;20620;-74
2021/05/25 12:48:33;;;;;;;0.65;0.65;;;13.50;99.90;;;;;;4973265;28;20201;-76
2021/05/25 12:51:01;;;;;;;0.57;0.57;;;13.30;99.90;;;;;;4973270;28;20231;-76
2021/05/25 12:53:29;;;;;;;0.60;0.60;;;13.60;99.90;;;;;;4972962;28;20275;-74
2021/05/25 12:56:02;;;;;;;0.60;0.60;;;14.20;99.90;;;;;;4973080;28;20204;-74
2021/05/25 12:58:43;;;;;;;0.50;0.50;;;14.80;99.90;;;;;;4973320;28;20208;-74
2021/05/25 13:01:21;;;;;;;0.40;0.40;;;15.40;99.90;;;;;;4973512;28;20225;-74
2021/05/25 13:03:49;;;;;;;0.50;0.50;;;16.10;99.90;;;;;;4976759;28;20262;-74
2021/05/25 13:06:20;;;;;;;0.50;0.50;;;16.70;99.90;;;;;;4974021;28;20208;-74
2021/05/25 13:08:50;;;;;;;0.40;0.40;;;17.20;95.70;;;;;;4966501;28;20623;-74
2021/05/25 13:11:19;;;;;;;0.40;0.40;;;17.60;95.00;;;;;;4965186;28;20271;-74
2021/05/25 13:13:48;;;;;;;0.40;0.40;;;18.00;90.00;;;;;;4966328;28;20204;-74
2021/05/25 13:16:23;;;;;;;0.40;0.40;;;17.90;89.40;;;;;;4967523;28;20209;-74
2021/05/25 13:18:51;;;;;;;0.40;0.40;;;18.10;91.50;;;;;;4964986;28;20216;-74
2021/05/25 13:21:21;;;;;;;0.40;0.40;;;18.30;86.80;;;;;;4964721;28;20233;-74
2021/05/25 13:23:55;;;;;;;0.40;0.40;;;18.60;85.60;;;;;;4965261;28;20843;-74
2021/05/25 13:26:32;;;;;;;0.30;0.30;;;18.50;84.80;;;;;;4967029;28;20212;-74
2021/05/25 13:29:01;;;;;;;0.30;0.30;;;18.70;85.00;;;;;;4962408;28;20197;-76
2021/05/25 13:31:30;;;;;;;0.40;0.40;;;18.40;82.50;;;;;;4964848;28;20256;-76
2021/05/25 13:33:58;;;;;;;0.30;0.30;;;17.80;81.80;;;;;;4957320;28;20202;-76
2021/05/25 13:36:29;;;;;;;0.30;0.30;;;17.10;85.20;;;;;;4956894;28;20205;-74
2021/05/25 13:38:57;;;;;;;0.40;0.40;;;16.80;88.60;;;;;;4957502;29;20204;-76
2021/05/25 13:41:25;;;;;;;0.40;0.40;;;16.10;92.70;;;;;;4957599;29;20228;-76
2021/05/25 13:43:54;;;;;;;0.50;0.50;;;15.50;97.30;;;;;;4957034;28;20205;-74
2021/05/25 13:46:23;;;;;;;0.60;0.60;;;15.10;99.90;;;;;;4956749;29;20210;-76
2021/05/25 13:48:51;;;;;;;0.50;0.50;;;15.00;99.90;;;;;;4959167;28;20701;-75
2021/05/25 13:51:18;;;;;;;0.60;0.60;;;15.10;99.90;;;;;;4966939;28;20225;-76
2021/05/25 13:53:46;;;;;;;0.50;0.50;;;15.30;99.90;;;;;;4962996;28;20190;-76
2021/05/25 13:56:17;;;;;;;0.50;0.50;;;15.40;99.90;;;;;;4960500;28;20252;-76
2021/05/25 13:58:45;;;;;;;0.50;0.50;;;15.60;99.90;;;;;;4965177;28;20211;-76
2021/05/25 14:01:28;;;;;;;0.50;0.50;;;15.90;99.90;;;;;;4964425;28;20221;-76
2021/05/25 14:03:57;;;;;;;0.40;0.40;;;16.30;96.60;;;;;;4958961;28;20206;-76
2021/05/25 14:06:24;;;;;;;0.60;0.60;;;16.20;92.90;;;;;;4961255;28;20255;-76
2021/05/25 14:08:52;;;;;;;0.50;0.50;;;16.30;93.30;;;;;;4956213;29;20216;-76
2021/05/25 14:11:22;;;;;;;0.45;0.45;;;16.60;93.20;;;;;;4958358;28;20638;-76
2021/05/25 14:13:50;;;;;;;0.40;0.40;;;16.90;92.10;;;;;;4962711;28;20201;-75
2021/05/25 14:16:18;;;;;;;0.40;0.40;;;16.80;92.80;;;;;;4966447;28;20271;-76
2021/05/25 14:18:45;;;;;;;0.50;0.50;;;16.90;91.00;;;;;;4963850;28;20275;-76
2021/05/25 14:21:13;;;;;;;0.40;0.40;;;16.90;90.40;;;;;;4965212;28;20236;-76
2021/05/25 14:23:41;;;;;;;0.40;0.40;;;16.60;90.20;;;;;;4963537;28;20288;-75
2021/05/25 14:26:08;;;;;;;0.30;0.30;;;16.60;90.60;;;;;;4972221;28;20212;-76
2021/05/25 14:28:36;;;;;;;0.40;0.40;;;16.20;90.50;;;;;;4975175;28;20584;-76
2021/05/25 14:31:04;;;;;;;0.60;0.60;;;15.80;90.90;;;;;;4975091;28;20229;-76
2021/05/25 14:33:31;;;;;;;0.60;0.60;;;15.20;94.30;;;;;;4975152;28;20201;-76
2021/05/25 14:36:05;;;;;;;0.60;0.60;;;14.60;97.60;;;;;;4974858;28;20209;-77
2021/05/25 14:38:33;;;;;;;0.60;0.60;;;14.40;99.90;;;;;;4973799;28;20201;-75
2021/05/25 14:41:01;;;;;;;0.60;0.60;;;14.40;99.90;;;;;;4962294;28;20272;-75
2021/05/25 14:43:28;;;;;;;0.50;0.50;;;14.60;99.90;;;;;;4955577;28;20221;-75
2021/05/25 14:45:57;;;;;;;0.60;0.60;;;14.70;98.50;;;;;;4960676;28;20730;-76
2021/05/25 14:48:25;;;;;;;0.60;0.60;;;14.60;97.40;;;;;;4968649;28;20204;-76
2021/05/25 14:50:53;;;;;;;0.60;0.60;;;14.50;99.90;;;;;;4965886;28;20589;-75
2021/05/25 14:53:26;;;;;;;0.60;0.60;;;14.60;96.10;;;;;;4965028;28;20724;-75
2021/05/25 14:55:58;;;;;;;0.60;0.60;;;14.60;98.10;;;;;;4969942;28;20198;-75
2021/05/25 14:58:25;;;;;;;0.60;0.60;;;14.70;96.10;;;;;;4970679;28;20686;-75
2021/05/25 15:00:55;;;;;;;0.60;0.60;;;14.90;95.90;;;;;;4961344;28;20634;-75
2021/05/25 15:03:28;;;;;;;0.60;0.60;;;15.70;99.90;;;;;;4966164;28;20220;-75
2021/05/25 15:06:04;;;;;;;0.60;0.60;;;15.70;95.40;;;;;;4964964;28;20237;-75
2021/05/25 15:08:37;;;;;;;0.40;0.40;;;16.10;90.40;;;;;;4966479;28;20205;-74
2021/05/25 15:11:05;;;;;;;0.50;0.50;;;16.10;89.60;;;;;;4963321;28;20257;-75
2021/05/25 15:13:32;;;;;;;0.50;0.50;;;16.00;90.00;;;;;;4963641;28;20696;-74
2021/05/25 15:16:00;;;;;;;0.50;0.50;;;15.90;89.00;;;;;;4973941;28;20239;-75
2021/05/25 15:18:29;;;;;;;0.50;0.50;;;15.90;88.90;;;;;;4974283;28;20209;-76
2021/05/25 15:20:56;;;;;;;0.50;0.50;;;15.90;87.70;;;;;;4973990;28;20709;-75
2021/05/25 15:23:24;;;;;;;0.50;0.50;;;15.90;87.20;;;;;;4973941;28;20291;-74
2021/05/25 15:25:51;;;;;;;0.50;0.50;;;16.00;86.00;;;;;;4973569;28;20204;-75
2021/05/25 15:28:19;;;;;;;0.40;0.40;;;15.80;86.50;;;;;;4974014;28;20201;-77
2021/05/25 15:30:46;;;;;;;0.50;0.50;;;16.00;87.10;;;;;;4973953;28;20705;-75
2021/05/25 15:33:15;;;;;;;0.40;0.40;;;15.90;86.40;;;;;;4974166;28;20205;-74
2021/05/25 15:35:44;;;;;;;0.50;0.50;;;16.10;87.00;;;;;;4971566;28;20204;-75
2021/05/25 15:38:13;;;;;;;0.40;0.40;;;16.30;85.80;;;;;;4962281;28;20733;-75
2021/05/25 15:40:42;;;;;;;0.50;0.50;;;16.20;85.10;;;;;;4968436;28;20633;-75
2021/05/25 15:43:11;;;;;;;0.40;0.40;;;16.20;93.40;;;;;;4954886;28;20225;-74
2021/05/25 15:45:40;;;;;;;0.40;0.40;;;16.40;84.70;;;;;;4954367;28;20586;-74
2021/05/25 15:48:08;;;;;;;0.40;0.40;;;16.60;83.90;;;;;;4957811;28;20564;-75
2021/05/25 15:50:35;;;;;;;0.50;0.50;;;16.60;80.50;;;;;;4954897;29;20369;-75
2021/05/25 15:53:06;;;;;;;0.40;0.40;;;16.50;81.90;;;;;;4954988;29;20572;-75
2021/05/25 15:55:35;;;;;;;0.40;0.40;;;16.60;80.90;;;;;;4954907;29;20186;-74
2021/05/25 15:58:03;;;;;;;0.40;0.40;;;16.60;82.20;;;;;;4954912;29;20217;-75
2021/05/25 16:00:35;;;;;;;0.50;0.50;;;16.90;91.00;;;;;;4971264;28;20200;-76
2021/05/25 16:03:04;;;;;;;0.50;0.50;;;16.70;80.60;;;;;;4971260;28;20694;-75
2021/05/25 16:05:31;;;;;;;0.40;0.40;;;16.60;80.80;;;;;;4973891;28;20248;-75
2021/05/25 16:08:00;;;;;;;0.50;0.50;;;16.60;80.30;;;;;;4974042;28;20204;-75
2021/05/25 16:10:29;;;;;;;0.60;0.60;;;16.90;91.40;;;;;;4973746;28;20616;-75
2021/05/25 16:12:56;;;;;;;0.40;0.40;;;16.60;79.60;;;;;;4974023;28;20205;-74
2021/05/25 16:15:25;;;;;;;0.40;0.40;;;16.70;80.30;;;;;;4970407;28;20201;-74
2021/05/25 16:17:52;;;;;;;0.50;0.50;;;16.80;78.70;;;;;;4973457;28;20209;-74
2021/05/25 16:20:22;;;;;;;0.40;0.40;;;16.80;90.40;;;;;;4973294;28;20267;-73
2021/05/25 16:22:51;;;;;;;0.50;0.50;;;16.30;78.20;;;;;;4972879;28;20224;-73
2021/05/25 16:25:20;;;;;;;0.50;0.50;;;16.00;78.50;;;;;;4973164;28;20205;-75
2021/05/25 16:27:48;;;;;;;0.40;0.40;;;15.80;79.10;;;;;;4973280;28;20259;-74
2021/05/25 16:30:17;;;;;;;0.40;0.40;;;16.50;91.00;;;;;;4973823;28;20239;-74
2021/05/25 16:32:45;;;;;;;0.50;0.50;;;16.10;80.00;;;;;;4972956;28;20212;-74
2021/05/25 16:35:14;;;;;;;0.40;0.40;;;16.50;78.70;;;;;;4953963;28;20236;-74
2021/05/25 16:37:41;;;;;;;0.40;0.40;;;16.60;79.60;;;;;;4953710;29;20555;-75
2021/05/25 16:40:10;;;;;;;0.57;0.57;;;16.40;79.30;;;;;;4954220;29;20201;-75
2021/05/25 16:42:38;;;;;;;0.60;0.60;;;16.60;90.20;;;;;;4953998;29;20232;-74
2021/05/25 16:45:09;;;;;;;0.50;0.50;;;17.00;79.00;;;;;;4953643;29;20296;-74
2021/05/25 16:47:37;;;;;;;0.50;0.50;;;16.90;75.50;;;;;;4953676;28;20205;-76
2021/05/25 16:50:09;;;;;;;0.60;0.60;;;16.70;76.80;;;;;;4954216;29;20577;-76
2021/05/25 16:52:39;;;;;;;0.55;0.55;;;16.80;76.40;;;;;;4953835;28;20224;-76
2021/05/25 16:55:10;;;;;;;0.90;0.90;;;17.00;75.70;;;;;;4953205;29;20209;-77
2021/05/25 16:57:37;;;;;;;0.93;0.93;;;16.70;77.10;;;;;;4953337;28;20225;-75
2021/05/25 17:00:13;;;;;;;0.50;0.50;;;17.50;75.40;;;;;;4959752;28;20208;-77
2021/05/25 17:02:45;;;;;;;0.40;0.40;;;18.10;73.10;;;;;;4952771;29;20216;-75
2021/05/25 17:05:30;;;;;;;0.30;0.30;;;16.80;88.80;;;;;;4953855;28;20189;-75
2021/05/25 17:08:24;;;;;;;0.40;0.40;;;16.90;76.50;;;;;;4972892;28;20647;-75
2021/05/25 17:11:04;;;;;;;0.50;0.50;;;16.30;79.10;;;;;;4971404;28;20260;-75
2021/05/25 17:13:38;;;;;;;0.50;0.50;;;15.90;80.10;;;;;;4972848;28;20212;-76
2021/05/25 17:18:52;;;;;;;0.50;0.50;;;15.20;82.30;;;;;;4972254;28;20288;-78